Time;durP1;ratioP1;P1;durP2;ratioP2;P2;SDS_P1;SDS_P2;PMS_P1;PMS_P2;Temp;Humidity;BMP_temperature;BMP_pressure;BME280_temperature;BME280_humidity;BME280_pressure;Samples;Min_cycle;Max_cycle;Signal;HPM_P1;HPM_P2
2023/04/04 00:00:14;;;;;;;6.63;3.70;;;;;;;1.27;77.42;102877.22;4931471;29;20106;-81
2023/04/04 00:02:40;;;;;;;7.40;3.83;;;;;;;1.24;77.33;102883.28;4915600;29;20493;-82
2023/04/04 00:05:07;;;;;;;6.75;3.90;;;;;;;1.24;77.22;102885.88;4933416;29;20517;-82
2023/04/04 00:07:33;;;;;;;7.47;3.90;;;;;;;1.18;77.33;102875.47;4920501;29;20147;-82
2023/04/04 00:09:58;;;;;;;8.98;4.50;;;;;;;1.16;78.26;102877.22;4918108;29;20115;-82
2023/04/04 00:12:24;;;;;;;9.10;4.38;;;;;;;1.16;78.40;102877.22;4931020;29;20039;-82
2023/04/04 00:14:50;;;;;;;7.30;3.70;;;;;;;1.17;78.32;102878.94;4934238;29;20032;-82
2023/04/04 00:17:16;;;;;;;6.28;3.90;;;;;;;1.10;78.50;102887.59;4915523;29;20104;-82
2023/04/04 00:19:45;;;;;;;7.82;3.95;;;;;;;1.09;79.19;102883.28;4919434;29;20052;-82
2023/04/04 00:22:12;;;;;;;8.02;4.28;;;;;;;1.06;79.13;102888.47;4914670;29;20036;-82
2023/04/04 00:24:38;;;;;;;9.82;4.00;;;;;;;1.05;79.02;102897.13;4917049;29;20485;-81
2023/04/04 00:27:03;;;;;;;7.85;4.00;;;;;;;1.00;79.71;102896.28;4935801;29;20038;-81
2023/04/04 00:29:29;;;;;;;8.25;3.97;;;;;;;0.96;79.42;102893.69;4948490;29;20035;-82
2023/04/04 00:31:55;;;;;;;9.85;4.45;;;;;;;0.93;79.29;102884.19;4951462;29;20054;-81
2023/04/04 00:34:20;;;;;;;8.30;4.22;;;;;;;0.96;79.21;102891.97;4948517;29;20378;-81
2023/04/04 00:36:48;;;;;;;7.47;4.07;;;;;;;0.93;79.89;102889.38;4928890;29;20055;-82
2023/04/04 00:39:14;;;;;;;7.93;4.45;;;;;;;0.92;79.85;102887.66;4949354;29;20035;-82
2023/04/04 00:41:39;;;;;;;7.93;4.00;;;;;;;0.95;79.43;102892.81;4950084;29;20148;-82
2023/04/04 00:44:05;;;;;;;8.77;4.32;;;;;;;0.96;80.02;102893.69;4951638;29;20046;-82
2023/04/04 00:46:31;;;;;;;7.93;4.22;;;;;;;0.93;79.82;102894.56;4951877;29;20598;-82
2023/04/04 00:48:58;;;;;;;8.50;3.92;;;;;;;0.93;79.78;102904.91;4944414;29;20588;-82
2023/04/04 00:51:24;;;;;;;9.18;3.70;;;;;;;0.92;79.12;102898.00;4938651;29;20040;-82
2023/04/04 00:53:50;;;;;;;8.75;4.20;;;;;;;0.93;79.77;102897.16;4921493;29;20032;-82
2023/04/04 00:56:16;;;;;;;7.00;4.20;;;;;;;0.92;79.14;102895.41;4943978;29;20035;-82
2023/04/04 00:58:46;;;;;;;11.05;4.53;;;;;;;0.92;80.49;102898.88;4925050;29;20101;-82
2023/04/04 01:01:15;;;;;;;9.13;4.40;;;;;;;0.88;79.78;102891.97;4951776;29;20375;-82
2023/04/04 01:03:41;;;;;;;8.48;3.92;;;;;;;0.89;79.38;102895.44;4951154;29;20035;-81
2023/04/04 01:06:07;;;;;;;8.82;4.40;;;;;;;0.87;80.45;102895.44;4947429;29;20062;-82
2023/04/04 01:08:36;;;;;;;9.63;3.85;;;;;;;0.89;80.35;102895.44;4930138;29;20042;-82
2023/04/04 01:11:03;;;;;;;6.80;4.03;;;;;;;0.82;80.26;102888.53;4920288;29;20035;-82
2023/04/04 01:13:28;;;;;;;7.47;3.85;;;;;;;0.80;80.52;102885.94;4931547;29;20496;-81
2023/04/04 01:15:54;;;;;;;7.97;3.45;;;;;;;0.81;81.34;102894.56;4944045;29;20066;-81
2023/04/04 01:18:21;;;;;;;6.40;4.30;;;;;;;0.76;80.75;102894.56;4932738;29;20059;-81
2023/04/04 01:21:09;;;;;;;7.25;3.88;;;;;;;0.79;79.99;102879.00;4933273;29;20097;-82
2023/04/04 01:23:50;;;;;;;8.45;4.18;;;;;;;0.76;80.55;102880.72;4925950;29;20035;-81
2023/04/04 01:26:16;;;;;;;7.30;3.58;;;;;;;0.73;81.57;102871.22;4947318;29;20432;-81
2023/04/04 01:28:41;;;;;;;8.10;3.80;;;;;;;0.73;81.76;102870.38;4941560;29;20046;-82
2023/04/04 01:31:15;;;;;;;8.48;4.15;;;;;;;0.66;82.10;102859.16;4941834;29;20044;-81
2023/04/04 01:33:46;;;;;;;7.40;4.05;;;;;;;0.62;82.11;102863.47;4933304;29;20135;-81
2023/04/04 01:36:20;;;;;;;7.30;4.20;;;;;;;0.64;82.29;102871.25;4959925;28;20062;-81
2023/04/04 01:38:52;;;;;;;10.50;4.22;;;;;;;0.60;82.32;102870.38;4947309;29;20155;-81
2023/04/04 01:41:20;;;;;;;9.48;3.83;;;;;;;0.63;82.28;102864.34;4949908;29;20086;-82
2023/04/04 01:43:46;;;;;;;6.13;4.18;;;;;;;0.59;82.41;102863.47;4949311;29;20397;-81
2023/04/04 01:46:11;;;;;;;8.07;4.05;;;;;;;0.47;82.30;102858.31;4941072;29;20046;-81
2023/04/04 01:48:37;;;;;;;8.30;4.15;;;;;;;0.43;82.87;102856.59;4949666;29;20546;-81
2023/04/04 01:51:03;;;;;;;8.80;4.30;;;;;;;0.41;82.99;102862.63;4950328;29;20619;-81
2023/04/04 01:53:29;;;;;;;7.28;4.15;;;;;;;0.38;83.06;102853.09;4949245;29;20035;-81
2023/04/04 01:55:55;;;;;;;10.07;4.30;;;;;;;0.34;83.71;102855.69;4948406;29;20090;-81
2023/04/04 01:58:21;;;;;;;10.05;4.30;;;;;;;0.29;84.06;102863.47;4950262;29;20060;-81
2023/04/04 02:00:46;;;;;;;9.70;4.18;;;;;;;0.20;84.12;102864.31;4950110;29;20047;-81
2023/04/04 02:03:13;;;;;;;9.57;4.50;;;;;;;0.21;84.56;102860.00;4902515;29;20390;-81
2023/04/04 02:05:39;;;;;;;5.50;3.90;;;;;;;0.16;84.63;102854.81;4945372;29;20039;-81
2023/04/04 02:08:05;;;;;;;6.45;4.20;;;;;;;0.14;85.24;102863.44;4944617;29;20492;-81
2023/04/04 02:10:30;;;;;;;10.48;4.50;;;;;;;0.07;86.09;102856.53;4948975;29;20046;-81
2023/04/04 02:12:56;;;;;;;7.88;4.43;;;;;;;0.04;85.75;102865.16;4932678;29;20043;-81
2023/04/04 02:15:22;;;;;;;5.80;4.03;;;;;;;-0.02;86.33;102863.41;4946456;29;20035;-81
2023/04/04 02:17:48;;;;;;;8.35;4.15;;;;;;;-0.03;86.67;102866.84;4929305;29;20047;-81
2023/04/04 02:20:15;;;;;;;6.70;3.90;;;;;;;-0.08;86.76;102863.38;4913225;29;20036;-81
2023/04/04 02:22:41;;;;;;;8.30;4.13;;;;;;;-0.13;87.44;102862.53;4895551;29;20029;-81
2023/04/04 02:25:07;;;;;;;6.72;4.50;;;;;;;-0.18;87.30;102864.22;4927177;29;20047;-81
2023/04/04 02:27:33;;;;;;;8.63;4.30;;;;;;;-0.24;87.93;102861.63;4949086;29;20964;-81
2023/04/04 02:29:59;;;;;;;7.82;4.50;;;;;;;-0.25;87.61;102866.81;4940311;29;20046;-81
2023/04/04 02:32:24;;;;;;;7.90;4.25;;;;;;;-0.31;87.48;102865.06;4947975;29;20445;-81
2023/04/04 02:34:50;;;;;;;8.30;4.47;;;;;;;-0.29;87.72;102867.66;4949922;29;20085;-81
2023/04/04 02:37:16;;;;;;;9.75;4.50;;;;;;;-0.31;88.03;102880.56;4929979;29;20038;-81
2023/04/04 02:39:42;;;;;;;9.98;5.00;;;;;;;-0.40;89.01;102880.50;4946155;29;20421;-81
2023/04/04 02:42:07;;;;;;;10.75;4.55;;;;;;;-0.41;88.83;102881.38;4948864;29;20043;-81
2023/04/04 02:44:33;;;;;;;6.22;4.10;;;;;;;-0.40;88.64;102875.34;4952071;28;20083;-81
2023/04/04 02:46:59;;;;;;;10.02;4.63;;;;;;;-0.42;88.73;102879.66;4955478;29;20043;-81
2023/04/04 02:49:25;;;;;;;5.80;4.10;;;;;;;-0.40;88.15;102877.94;4952993;29;20039;-81
2023/04/04 02:51:50;;;;;;;8.82;4.30;;;;;;;-0.38;88.12;102873.66;4936241;29;20404;-81
2023/04/04 02:54:15;;;;;;;11.82;4.60;;;;;;;-0.40;87.30;102865.00;4944220;29;20027;-81
2023/04/04 02:56:41;;;;;;;8.10;4.35;;;;;;;-0.41;87.46;102852.94;4947974;29;20385;-81
2023/04/04 02:59:07;;;;;;;9.02;5.13;;;;;;;-0.42;88.17;102858.97;4952225;29;20057;-81
2023/04/04 03:01:32;;;;;;;7.53;2.40;;;;;;;-0.32;87.35;102863.34;4949465;29;20111;-81
2023/04/04 03:03:58;;;;;;;6.68;4.60;;;;;;;-0.37;87.31;102854.69;4943349;29;20055;-81
2023/04/04 03:06:23;;;;;;;7.22;4.45;;;;;;;-0.38;87.02;102869.34;4932810;29;20036;-81
2023/04/04 03:08:49;;;;;;;7.88;4.40;;;;;;;-0.38;87.90;102855.56;4948758;29;20046;-81
2023/04/04 03:11:20;;;;;;;8.40;4.60;;;;;;;-0.37;87.49;102863.31;4936970;29;20059;-81
2023/04/04 03:13:45;;;;;;;6.68;4.35;;;;;;;-0.39;87.39;102861.59;4940359;29;20424;-81
2023/04/04 03:16:16;;;;;;;8.80;4.47;;;;;;;-0.40;87.85;102859.81;4926478;29;20028;-81
2023/04/04 03:18:45;;;;;;;8.50;4.68;;;;;;;-0.38;87.39;102873.66;4936746;29;20071;-81
2023/04/04 03:21:11;;;;;;;11.95;5.28;;;;;;;-0.41;87.53;102873.63;4934757;29;20484;-81
2023/04/04 03:23:37;;;;;;;8.10;4.43;;;;;;;-0.44;87.77;102869.31;4949399;29;20046;-81
2023/04/04 03:26:06;;;;;;;9.63;4.85;;;;;;;-0.53;88.79;102871.00;4946960;29;20180;-81
2023/04/04 03:28:31;;;;;;;8.52;4.30;;;;;;;-0.55;88.63;102870.13;4928469;29;20036;-81
2023/04/04 03:31:05;;;;;;;11.25;5.28;;;;;;;-0.57;89.17;102869.25;4912163;29;20596;-81
2023/04/04 03:33:34;;;;;;;8.68;4.40;;;;;;;-0.58;89.07;102867.53;4925202;29;20098;-81
2023/04/04 03:36:00;;;;;;;8.93;4.50;;;;;;;-0.65;89.48;102864.91;4934969;29;20031;-81
2023/04/04 03:38:26;;;;;;;7.85;4.55;;;;;;;-0.68;89.66;102858.88;4930408;29;20086;-80
2023/04/04 03:41:00;;;;;;;7.07;4.47;;;;;;;-0.64;89.97;102848.53;4931828;29;20055;-81
2023/04/04 03:43:27;;;;;;;7.55;4.70;;;;;;;-0.72;89.53;102852.81;4925811;29;20070;-81
2023/04/04 03:45:52;;;;;;;8.43;4.70;;;;;;;-0.76;89.76;102858.84;4933122;29;21618;-81
2023/04/04 03:48:18;;;;;;;6.20;4.03;;;;;;;-0.76;90.04;102845.91;4919475;29;20067;-81
2023/04/04 03:50:43;;;;;;;8.10;4.60;;;;;;;-0.80;90.36;102841.59;4931161;29;20070;-80
2023/04/04 03:53:11;;;;;;;9.07;5.13;;;;;;;-0.77;91.19;102839.00;4933257;29;20042;-80
2023/04/04 03:55:40;;;;;;;9.45;4.80;;;;;;;-0.78;90.81;102842.47;4928562;29;20039;-80
2023/04/04 03:58:06;;;;;;;9.00;5.18;;;;;;;-0.81;90.96;102833.78;4931560;29;20050;-80
2023/04/04 04:00:31;;;;;;;6.22;2.53;;;;;;;-0.74;89.89;102833.84;4932768;29;20119;-80
2023/04/04 04:02:57;;;;;;;7.60;4.38;;;;;;;-0.87;90.31;102837.22;4933552;29;20032;-80
2023/04/04 04:05:23;;;;;;;8.68;4.85;;;;;;;-0.85;90.83;102835.50;4913516;29;20047;-80
2023/04/04 04:07:49;;;;;;;9.38;4.65;;;;;;;-0.88;90.91;102839.78;4907649;29;20039;-80
2023/04/04 04:10:15;;;;;;;6.20;2.85;;;;;;;-0.81;90.37;102850.16;4930454;29;20408;-80
2023/04/04 04:12:41;;;;;;;10.85;5.40;;;;;;;-0.92;90.42;102843.22;4933113;29;20090;-81
2023/04/04 04:15:07;;;;;;;9.40;5.00;;;;;;;-0.91;91.04;102839.78;4930547;29;20032;-81
2023/04/04 04:17:32;;;;;;;10.00;5.32;;;;;;;-0.94;90.87;102843.22;4926348;29;20142;-81
2023/04/04 04:19:58;;;;;;;7.95;5.13;;;;;;;-0.95;91.07;102838.91;4928726;29;20405;-80
2023/04/04 04:22:24;;;;;;;7.85;4.95;;;;;;;-0.96;91.43;102848.38;4901285;29;20044;-80
2023/04/04 04:24:50;;;;;;;8.25;5.28;;;;;;;-1.05;91.65;102852.63;4912444;29;20043;-80
2023/04/04 04:27:16;;;;;;;9.38;5.28;;;;;;;-1.03;91.70;102849.19;4924610;29;20070;-81
2023/04/04 04:29:41;;;;;;;9.82;5.00;;;;;;;-1.05;91.68;102847.47;4953113;29;20125;-80
2023/04/04 04:32:07;;;;;;;9.90;5.50;;;;;;;-1.10;91.77;102849.16;4947110;29;20031;-80
2023/04/04 04:34:32;;;;;;;8.68;5.40;;;;;;;-1.12;92.12;102840.53;4952627;28;20039;-81
2023/04/04 04:36:58;;;;;;;7.78;3.17;;;;;;;-1.03;90.77;102836.28;4948058;29;20031;-81
2023/04/04 04:39:23;;;;;;;7.65;5.10;;;;;;;-1.16;91.81;102841.38;4928787;29;20064;-81
2023/04/04 04:41:49;;;;;;;9.38;5.40;;;;;;;-1.16;92.33;102844.81;4915761;29;20044;-81
2023/04/04 04:44:15;;;;;;;9.82;5.60;;;;;;;-1.15;92.87;102841.38;4944403;29;20047;-81
2023/04/04 04:46:40;;;;;;;4.78;2.72;;;;;;;-1.08;91.95;102842.28;4947509;29;20035;-81
2023/04/04 04:49:06;;;;;;;8.13;5.35;;;;;;;-1.23;92.58;102842.16;4947789;29;20555;-81
2023/04/04 04:51:32;;;;;;;13.40;5.80;;;;;;;-1.21;93.13;102841.31;4917731;29;20047;-81
2023/04/04 04:53:57;;;;;;;11.68;6.07;;;;;;;-1.26;93.92;102849.03;4946766;29;20031;-81
2023/04/04 04:56:23;;;;;;;8.20;5.68;;;;;;;-1.29;93.85;102858.47;4931829;29;20524;-81
2023/04/04 04:58:49;;;;;;;12.02;5.82;;;;;;;-1.33;93.57;102860.16;4946675;28;20042;-81
2023/04/04 05:01:15;;;;;;;9.48;5.97;;;;;;;-1.38;93.83;102864.44;4946429;29;20042;-80
2023/04/04 05:03:40;;;;;;;11.65;5.97;;;;;;;-1.36;94.17;102873.06;4930949;29;20039;-79
2023/04/04 05:06:09;;;;;;;7.82;5.78;;;;;;;-1.38;94.21;102879.94;4933612;29;20091;-80
2023/04/04 05:08:35;;;;;;;7.90;5.85;;;;;;;-1.38;94.37;102879.94;4907422;29;20036;-81
2023/04/04 05:11:00;;;;;;;18.45;3.13;;;;;;;-1.28;93.38;102884.31;4929725;29;20102;-81
2023/04/04 05:13:26;;;;;;;8.35;5.53;;;;;;;-1.38;94.01;102884.22;4932360;29;20127;-81
2023/04/04 05:15:51;;;;;;;8.88;5.70;;;;;;;-1.38;94.24;102885.09;4944758;29;20111;-81
2023/04/04 05:18:16;;;;;;;11.60;6.05;;;;;;;-1.36;94.36;102872.19;4932280;29;20055;-80
2023/04/04 05:20:42;;;;;;;7.72;5.85;;;;;;;-1.43;94.59;102884.19;4930361;29;20488;-81
2023/04/04 05:23:08;;;;;;;11.32;5.82;;;;;;;-1.39;95.16;102873.03;4908139;29;20481;-81
2023/04/04 05:25:33;;;;;;;11.30;6.07;;;;;;;-1.41;94.97;102879.91;4913835;29;20127;-81
2023/04/04 05:27:58;;;;;;;9.48;6.07;;;;;;;-1.47;94.85;102874.69;4913886;29;20451;-81
2023/04/04 05:30:24;;;;;;;4.63;2.95;;;;;;;-1.34;94.42;102881.69;4927215;29;20047;-81
2023/04/04 05:32:51;;;;;;;10.80;5.93;;;;;;;-1.35;95.17;102889.41;4913900;29;20025;-81
2023/04/04 05:35:16;;;;;;;11.05;6.28;;;;;;;-1.37;95.76;102879.06;4927758;29;20044;-81
2023/04/04 05:37:42;;;;;;;10.57;6.47;;;;;;;-1.33;95.76;102878.25;4913341;29;20072;-80
2023/04/04 05:40:08;;;;;;;9.45;6.00;;;;;;;-1.29;96.45;102885.16;4918029;29;20036;-80
2023/04/04 05:42:33;;;;;;;10.98;6.00;;;;;;;-1.21;96.72;102881.75;4933620;29;20070;-81
2023/04/04 05:44:59;;;;;;;4.72;2.97;;;;;;;-1.17;95.84;102889.56;4950794;29;20035;-80
2023/04/04 05:47:25;;;;;;;7.28;3.00;;;;;;;-1.13;95.42;102882.72;4931651;29;20031;-80
2023/04/04 05:49:51;;;;;;;9.48;6.70;;;;;;;-1.15;95.98;102887.88;4938319;29;20111;-81
2023/04/04 05:52:16;;;;;;;7.53;3.05;;;;;;;-1.05;95.82;102893.94;4929551;29;20031;-81
2023/04/04 05:54:42;;;;;;;5.53;3.30;;;;;;;-1.01;94.75;102898.28;4931540;29;20067;-81
2023/04/04 05:57:07;;;;;;;12.15;6.32;;;;;;;-1.08;95.81;102894.78;4928037;29;20114;-80
2023/04/04 05:59:33;;;;;;;9.13;6.60;;;;;;;-1.02;96.12;102901.72;4913686;29;20040;-81
2023/04/04 06:01:58;;;;;;;9.57;6.75;;;;;;;-0.99;95.69;102894.00;4951073;28;20127;-80
2023/04/04 06:04:25;;;;;;;12.63;6.93;;;;;;;-0.92;95.46;102890.59;4944958;29;20126;-81
2023/04/04 06:06:51;;;;;;;7.85;3.42;;;;;;;-0.83;95.27;102892.34;4919544;29;20127;-80
2023/04/04 06:09:16;;;;;;;13.32;7.25;;;;;;;-0.78;95.39;102881.22;4925689;29;20044;-80
2023/04/04 06:11:41;;;;;;;6.13;3.60;;;;;;;-0.69;94.96;102889.03;4919291;29;20149;-80
2023/04/04 06:14:07;;;;;;;8.48;4.13;;;;;;;-0.60;94.49;102892.50;4933017;29;20070;-81
2023/04/04 06:16:34;;;;;;;14.25;6.40;;;;;;;-0.48;95.04;102889.97;4929366;29;20058;-80
2023/04/04 06:19:00;;;;;;;12.35;7.07;;;;;;;-0.40;93.97;102884.00;4938490;28;20035;-81
2023/04/04 06:21:25;;;;;;;13.93;7.10;;;;;;;-0.28;93.44;102892.66;4933965;29;20073;-80
2023/04/04 06:23:51;;;;;;;14.00;6.88;;;;;;;-0.17;92.90;102885.78;4922416;29;20124;-80
2023/04/04 06:26:16;;;;;;;12.75;6.88;;;;;;;-0.06;91.58;102890.13;4947994;29;20043;-80
2023/04/04 06:28:48;;;;;;;11.75;6.78;;;;;;;0.13;89.88;102900.53;4919888;29;20126;-80
2023/04/04 06:31:14;;;;;;;14.18;6.65;;;;;;;0.24;89.81;102897.09;4918732;29;20032;-80
2023/04/04 06:33:39;;;;;;;13.60;6.80;;;;;;;0.34;88.29;102902.28;4935614;29;20040;-81
2023/04/04 06:36:05;;;;;;;12.07;6.82;;;;;;;0.46;87.35;102907.50;4950839;29;20041;-81
2023/04/04 06:38:32;;;;;;;12.80;6.80;;;;;;;0.60;86.35;102906.66;4957741;28;20043;-81
2023/04/04 06:40:58;;;;;;;7.90;5.80;;;;;;;0.67;85.13;102902.31;4937140;29;20040;-81
2023/04/04 06:43:24;;;;;;;11.23;6.57;;;;;;;0.77;84.57;102898.00;4934847;29;20180;-81
2023/04/04 06:45:49;;;;;;;11.52;6.97;;;;;;;0.91;83.49;102902.34;4935777;29;20059;-81
2023/04/04 06:48:15;;;;;;;8.88;6.47;;;;;;;1.04;83.18;102908.34;4917395;29;20035;-82
2023/04/04 06:50:40;;;;;;;8.32;6.35;;;;;;;1.14;81.20;102904.00;4918882;29;20091;-81
2023/04/04 06:53:06;;;;;;;14.15;7.10;;;;;;;1.32;81.81;102906.59;4949898;29;20043;-81
2023/04/04 06:55:32;;;;;;;15.32;6.57;;;;;;;1.45;80.80;102910.00;4934968;29;20059;-82
2023/04/04 06:57:58;;;;;;;12.88;6.50;;;;;;;1.57;78.75;102909.94;4902900;29;20090;-80
2023/04/04 07:00:24;;;;;;;11.73;6.57;;;;;;;1.79;79.46;102916.81;4936270;29;20481;-80
2023/04/04 07:02:56;;;;;;;10.43;6.70;;;;;;;1.92;77.13;102906.34;4942010;29;20047;-80
2023/04/04 07:05:21;;;;;;;13.18;7.10;;;;;;;2.11;77.86;102905.41;4934648;29;20040;-79
2023/04/04 07:07:46;;;;;;;14.43;6.88;;;;;;;2.23;76.65;102912.25;4916494;29;20043;-81
2023/04/04 07:10:12;;;;;;;11.02;6.30;;;;;;;2.36;76.34;102911.28;4930715;29;20043;-81
2023/04/04 07:12:38;;;;;;;12.07;6.72;;;;;;;2.44;75.84;102910.38;4949520;29;20028;-81
2023/04/04 07:15:04;;;;;;;11.52;6.45;;;;;;;2.56;75.27;102916.38;4933268;29;20086;-81
2023/04/04 07:17:29;;;;;;;11.75;6.55;;;;;;;2.63;74.81;102908.50;4934734;29;20036;-81
2023/04/04 07:19:55;;;;;;;10.05;6.35;;;;;;;2.80;73.49;102906.66;4942843;29;20050;-81
2023/04/04 07:22:20;;;;;;;10.05;6.75;;;;;;;2.93;73.75;102907.41;4933904;29;20050;-81
2023/04/04 07:24:47;;;;;;;12.35;6.22;;;;;;;3.24;72.87;102907.97;4950447;29;20046;-80
2023/04/04 07:27:14;;;;;;;8.52;6.03;;;;;;;3.61;72.96;102903.22;4944976;29;20059;-80
2023/04/04 07:29:39;;;;;;;12.07;5.90;;;;;;;3.88;69.92;102890.72;4940547;28;20035;-81
2023/04/04 07:32:05;;;;;;;11.55;5.80;;;;;;;3.99;67.98;102896.63;4952508;29;20046;-78
2023/04/04 07:34:30;;;;;;;11.20;5.28;;;;;;;4.22;66.32;102891.13;4944304;29;20043;-78
2023/04/04 07:36:56;;;;;;;13.15;5.07;;;;;;;4.39;66.56;102894.31;4930856;29;20075;-79
2023/04/04 07:39:22;;;;;;;9.48;4.82;;;;;;;4.48;65.23;102885.53;4950548;29;20514;-78
2023/04/04 07:41:47;;;;;;;14.30;5.28;;;;;;;4.88;63.89;102886.56;4954028;29;20039;-78
2023/04/04 07:44:13;;;;;;;11.73;5.43;;;;;;;5.11;64.50;102877.47;4942357;29;20503;-78
2023/04/04 07:46:39;;;;;;;9.48;5.03;;;;;;;5.17;61.88;102879.94;4923248;29;20040;-79
2023/04/04 07:49:06;;;;;;;7.57;4.07;;;;;;;5.45;60.69;102886.38;4934029;29;20397;-79
2023/04/04 07:51:31;;;;;;;8.90;4.80;;;;;;;5.69;61.95;102886.78;4930311;29;20036;-79
2023/04/04 07:53:57;;;;;;;7.47;5.10;;;;;;;5.78;60.43;102881.34;4934431;29;20094;-79
2023/04/04 07:56:23;;;;;;;9.60;5.10;;;;;;;5.90;61.10;102873.28;4933891;29;20044;-79
2023/04/04 07:58:48;;;;;;;9.43;5.20;;;;;;;6.00;61.47;102874.78;4934052;29;20039;-78
2023/04/04 08:01:14;;;;;;;7.03;4.97;;;;;;;6.17;59.69;102893.56;4932584;29;20032;-78
2023/04/04 08:03:40;;;;;;;5.97;3.50;;;;;;;6.12;53.45;102890.22;4916225;29;20059;-79
2023/04/04 08:06:05;;;;;;;8.82;3.47;;;;;;;6.38;54.50;102891.34;4932636;29;20824;-78
2023/04/04 08:08:31;;;;;;;5.93;3.25;;;;;;;6.48;51.45;102898.97;4933822;29;20083;-79
2023/04/04 08:10:56;;;;;;;8.90;4.60;;;;;;;6.76;56.59;102895.66;4930541;29;20102;-79
2023/04/04 08:13:22;;;;;;;8.95;4.68;;;;;;;6.90;57.36;102885.72;4921493;29;20042;-79
2023/04/04 08:15:48;;;;;;;9.25;4.50;;;;;;;6.90;56.57;102891.81;4940366;29;20044;-79
2023/04/04 08:18:14;;;;;;;10.60;4.65;;;;;;;7.07;56.61;102891.34;4918656;29;20032;-79
2023/04/04 08:20:39;;;;;;;7.70;3.55;;;;;;;7.04;52.99;102893.19;4913249;29;20051;-79
2023/04/04 08:23:05;;;;;;;7.70;3.38;;;;;;;6.95;50.38;102896.06;4912429;29;20160;-78
2023/04/04 08:25:33;;;;;;;9.63;3.70;;;;;;;6.89;50.84;102895.31;4912771;29;20474;-79
2023/04/04 08:28:04;;;;;;;6.88;3.60;;;;;;;6.91;50.51;102897.91;4913771;29;20507;-79
2023/04/04 08:30:30;;;;;;;8.90;3.17;;;;;;;7.07;52.07;102893.09;4926799;29;20445;-79
2023/04/04 08:32:56;;;;;;;6.43;3.90;;;;;;;7.44;52.42;102888.59;4932358;29;20036;-79
2023/04/04 08:35:21;;;;;;;6.72;3.90;;;;;;;7.61;51.47;102889.91;4932619;29;20035;-79
2023/04/04 08:37:49;;;;;;;5.60;3.08;;;;;;;7.50;50.27;102877.94;4948061;29;20087;-79
2023/04/04 08:40:15;;;;;;;6.50;3.55;;;;;;;7.75;49.82;102877.25;4932093;29;20035;-79
2023/04/04 08:42:44;;;;;;;8.10;2.88;;;;;;;7.70;47.27;102873.91;4931534;29;20044;-79
2023/04/04 08:45:11;;;;;;;7.20;3.55;;;;;;;7.81;47.73;102874.44;4932748;29;20104;-79
2023/04/04 08:47:38;;;;;;;5.22;2.60;;;;;;;7.82;46.22;102871.75;4932607;29;20046;-79
2023/04/04 08:50:06;;;;;;;6.28;2.63;;;;;;;7.98;45.47;102872.16;4932646;29;20040;-79
2023/04/04 08:52:35;;;;;;;5.60;2.50;;;;;;;7.92;45.08;102874.97;4933064;29;20032;-79
2023/04/04 08:55:05;;;;;;;6.15;2.70;;;;;;;8.07;46.21;102864.03;4931999;29;20053;-79
2023/04/04 08:57:30;;;;;;;3.53;2.80;;;;;;;7.98;44.52;102864.28;4927631;29;20032;-79
2023/04/04 08:59:56;;;;;;;6.85;2.63;;;;;;;7.94;45.20;102862.66;4925955;29;20044;-80
2023/04/04 09:02:33;;;;;;;5.07;2.63;;;;;;;7.92;45.68;102866.25;4932949;29;20095;-79
2023/04/04 09:05:00;;;;;;;7.72;2.50;;;;;;;7.84;44.08;102867.34;4932911;29;20099;-79
2023/04/04 09:07:26;;;;;;;5.72;2.42;;;;;;;7.97;44.86;102872.19;4932288;29;20135;-79
2023/04/04 09:09:53;;;;;;;4.00;2.47;;;;;;;8.09;43.78;102859.59;4932361;29;20516;-80
2023/04/04 09:12:21;;;;;;;4.28;2.40;;;;;;;8.25;44.00;102865.19;4932731;29;20087;-79
2023/04/04 09:14:49;;;;;;;4.32;2.35;;;;;;;8.45;44.69;102864.59;4931067;29;20039;-80
2023/04/04 09:17:15;;;;;;;4.53;2.53;;;;;;;8.40;43.50;102866.50;4932662;29;20071;-79
2023/04/04 09:19:40;;;;;;;4.00;2.20;;;;;;;8.48;42.90;102869.75;4933429;29;20077;-79
2023/04/04 09:22:08;;;;;;;5.40;2.55;;;;;;;8.48;42.77;102867.13;4914938;29;20400;-77
2023/04/04 09:24:42;;;;;;;5.97;2.22;;;;;;;8.58;43.51;102867.69;4932828;29;20123;-78
2023/04/04 09:27:09;;;;;;;5.10;2.13;;;;;;;8.60;42.84;102869.34;4932449;29;20812;-79
2023/04/04 09:29:36;;;;;;;5.80;3.03;;;;;;;8.69;42.89;102869.03;4931091;29;20099;-78
2023/04/04 09:32:23;;;;;;;5.40;2.15;;;;;;;8.80;44.12;102866.03;4932183;29;20035;-78
2023/04/04 09:34:49;;;;;;;4.43;2.40;;;;;;;8.55;41.60;102873.88;4915030;29;20560;-78
2023/04/04 09:37:16;;;;;;;4.55;2.35;;;;;;;8.29;41.32;102873.81;4931328;29;20119;-80
2023/04/04 09:39:42;;;;;;;4.90;2.53;;;;;;;8.21;41.82;102860.09;4932397;29;20040;-78
2023/04/04 09:42:08;;;;;;;5.38;2.28;;;;;;;8.11;41.13;102870.88;4931127;29;20051;-80
2023/04/04 09:44:35;;;;;;;4.03;2.33;;;;;;;8.38;40.62;102865.69;4945925;29;20033;-81
2023/04/04 09:47:32;;;;;;;6.30;2.60;;;;;;;8.95;43.24;102856.78;4951096;29;20081;-78
2023/04/04 09:50:00;;;;;;;7.43;2.70;;;;;;;9.18;40.24;102862.06;4932188;29;20111;-79
2023/04/04 09:52:25;;;;;;;4.47;2.40;;;;;;;9.80;40.47;102853.63;4921626;29;20036;-79
2023/04/04 09:54:55;;;;;;;4.10;2.45;;;;;;;10.30;38.24;102866.59;4898756;29;20458;-79
2023/04/04 09:57:21;;;;;;;3.65;2.53;;;;;;;10.92;36.63;102850.81;4923665;29;20035;-78
2023/04/04 09:59:46;;;;;;;5.47;2.63;;;;;;;11.96;35.06;102845.25;4936317;29;20035;-78
2023/04/04 10:02:12;;;;;;;5.53;2.50;;;;;;;12.63;33.15;102853.34;4918436;29;20035;-79
2023/04/04 10:04:38;;;;;;;6.13;2.50;;;;;;;13.15;31.70;102848.88;4934315;29;20079;-79
2023/04/04 10:07:03;;;;;;;6.32;2.45;;;;;;;13.51;30.98;102836.44;4935180;29;20044;-79
2023/04/04 10:09:28;;;;;;;4.70;2.30;;;;;;;14.98;29.46;102829.72;4918851;29;20042;-79
2023/04/04 10:12:08;;;;;;;5.68;2.72;;;;;;;16.44;30.89;102830.13;4918630;29;20035;-79
2023/04/04 10:14:35;;;;;;;7.03;2.50;;;;;;;16.73;26.69;102830.81;4919383;29;20080;-79
2023/04/04 10:17:07;;;;;;;3.95;2.40;;;;;;;16.57;26.86;102828.34;4935998;29;20038;-79
2023/04/04 10:19:36;;;;;;;6.57;2.47;;;;;;;16.59;26.20;102829.06;4935686;29;20036;-78
2023/04/04 10:22:02;;;;;;;5.30;3.00;;;;;;;17.12;25.02;102822.75;4936209;29;20032;-78
2023/04/04 10:24:28;;;;;;;5.63;2.10;;;;;;;17.35;25.67;102813.16;4918993;29;20400;-80
2023/04/04 10:26:54;;;;;;;6.32;2.70;;;;;;;17.58;25.49;102813.28;4936868;29;20044;-81
2023/04/04 10:29:23;;;;;;;4.88;2.35;;;;;;;18.20;25.44;102821.19;4918983;29;20560;-81
2023/04/04 10:31:54;;;;;;;4.18;2.30;;;;;;;18.21;24.47;102814.91;4936061;29;20032;-81
2023/04/04 10:34:27;;;;;;;6.25;2.40;;;;;;;18.01;24.52;102822.56;4935790;29;20059;-81
2023/04/04 10:36:59;;;;;;;6.93;2.60;;;;;;;17.57;24.63;102814.25;4936496;29;20035;-81
2023/04/04 10:39:28;;;;;;;5.70;2.78;;;;;;;16.99;26.64;102821.06;4936975;29;20048;-81
2023/04/04 10:41:55;;;;;;;7.32;3.13;;;;;;;15.42;27.15;102819.00;4936753;29;20094;-80
2023/04/04 10:44:38;;;;;;;6.40;2.72;;;;;;;14.83;30.34;102831.50;4934132;29;20130;-80
2023/04/04 10:47:17;;;;;;;5.70;2.50;;;;;;;13.42;31.45;102821.94;4932910;29;20043;-80
2023/04/04 10:49:44;;;;;;;6.13;2.90;;;;;;;12.42;32.55;102812.22;4923574;29;20044;-80
2023/04/04 10:52:12;;;;;;;6.03;2.50;;;;;;;11.82;33.21;102804.56;4915810;29;20182;-79
2023/04/04 10:54:40;;;;;;;5.28;2.85;;;;;;;11.09;34.67;102805.28;4919664;29;20051;-79
2023/04/04 10:57:06;;;;;;;6.85;2.90;;;;;;;10.73;35.21;102812.16;4933029;29;20035;-80
2023/04/04 10:59:31;;;;;;;9.98;2.80;;;;;;;10.44;36.14;102811.66;4934699;29;20511;-80
2023/04/04 11:02:01;;;;;;;5.85;2.90;;;;;;;10.11;35.98;102818.25;4935604;29;20039;-81
2023/04/04 11:04:32;;;;;;;5.60;2.42;;;;;;;9.85;37.19;102807.00;4934180;29;20119;-81
2023/04/04 11:07:16;;;;;;;5.13;2.53;;;;;;;9.72;37.21;102811.88;4945395;29;20047;-80
2023/04/04 11:09:55;;;;;;;5.68;2.90;;;;;;;9.80;37.60;102814.22;4938676;29;20032;-79
2023/04/04 11:12:22;;;;;;;8.05;2.88;;;;;;;9.86;36.99;102811.34;4934554;29;20035;-79
2023/04/04 11:15:07;;;;;;;5.72;2.45;;;;;;;10.02;38.35;102804.56;4934717;29;20809;-79
2023/04/04 11:17:53;;;;;;;6.90;2.78;;;;;;;10.01;38.43;102802.00;4934575;29;20416;-79
2023/04/04 11:20:32;;;;;;;6.32;2.58;;;;;;;9.96;37.15;102796.03;4933441;29;20039;-79
2023/04/04 11:23:04;;;;;;;7.82;2.85;;;;;;;9.72;36.21;102790.00;4931360;29;20037;-79
2023/04/04 11:25:29;;;;;;;4.20;2.60;;;;;;;9.61;36.57;102792.19;4933383;29;20054;-79